Time;durP1;ratioP1;P1;durP2;ratioP2;P2;SDS_P1;SDS_P2;PMS_P1;PMS_P2;Temp;Humidity;BMP_temperature;BMP_pressure;BME280_temperature;BME280_humidity;BME280_pressure;Samples;Min_cycle;Max_cycle;Signal;HPM_P1;HPM_P2
2023/05/30 00:01:06;;;;;;;0.75;0.57;;;21.50;81.40;;;;;;5106878;28;20323;-83
2023/05/30 00:03:35;;;;;;;0.65;0.38;;;21.50;81.30;;;;;;5108265;28;20221;-83
2023/05/30 00:06:06;;;;;;;1.35;1.08;;;21.40;81.20;;;;;;5111718;28;20189;-82
2023/05/30 00:08:35;;;;;;;1.05;0.70;;;21.40;81.30;;;;;;5110642;28;20204;-83
2023/05/30 00:11:03;;;;;;;1.30;1.08;;;21.40;81.30;;;;;;5112425;28;20193;-83
2023/05/30 00:13:32;;;;;;;0.68;0.50;;;21.40;81.30;;;;;;5107131;28;20212;-83
2023/05/30 00:16:01;;;;;;;0.88;0.70;;;21.40;81.20;;;;;;5109270;28;20193;-83
2023/05/30 00:18:34;;;;;;;0.30;0.30;;;21.30;81.10;;;;;;5115838;28;20217;-82
2023/05/30 00:21:03;;;;;;;0.50;0.43;;;21.30;81.10;;;;;;5106438;28;20209;-82
2023/05/30 00:23:35;;;;;;;1.30;0.63;;;21.30;81.10;;;;;;5108232;28;20200;-82
2023/05/30 00:26:03;;;;;;;0.60;0.60;;;21.30;81.30;;;;;;5114102;28;20870;-83
2023/05/30 00:28:32;;;;;;;1.17;0.88;;;21.20;81.20;;;;;;5110318;28;20192;-83
2023/05/30 00:31:00;;;;;;;2.53;1.30;;;21.20;81.30;;;;;;5110309;28;20193;-83
2023/05/30 00:33:29;;;;;;;0.57;0.50;;;21.20;81.30;;;;;;5109824;28;20538;-83
2023/05/30 00:35:57;;;;;;;1.83;0.73;;;21.10;81.30;;;;;;5113095;28;20194;-83
2023/05/30 00:38:26;;;;;;;1.27;0.77;;;21.10;81.40;;;;;;5107120;28;20549;-82
2023/05/30 00:40:56;;;;;;;0.82;0.65;;;21.10;81.50;;;;;;5111392;27;20194;-82
2023/05/30 00:43:25;;;;;;;1.90;1.33;;;21.00;81.60;;;;;;5110648;27;20221;-82
2023/05/30 00:45:55;;;;;;;0.50;0.50;;;21.00;81.70;;;;;;5113884;28;20195;-82
2023/05/30 00:48:24;;;;;;;1.05;0.70;;;21.00;81.70;;;;;;5108834;27;20658;-83
2023/05/30 00:50:53;;;;;;;1.33;0.63;;;21.00;81.80;;;;;;5118590;27;20205;-82
2023/05/30 00:53:23;;;;;;;0.82;0.68;;;20.90;81.80;;;;;;5104030;28;20197;-81
2023/05/30 00:55:52;;;;;;;1.35;0.70;;;20.90;81.80;;;;;;5110426;27;20189;-82
2023/05/30 00:58:22;;;;;;;0.88;0.65;;;20.90;81.80;;;;;;5111112;27;20563;-82
2023/05/30 01:00:51;;;;;;;0.40;0.40;;;20.80;81.90;;;;;;5118378;27;20204;-82
2023/05/30 01:03:22;;;;;;;8.15;1.25;;;20.80;81.90;;;;;;5112286;27;20197;-81
2023/05/30 01:05:51;;;;;;;1.50;0.90;;;20.80;82.90;;;;;;5108468;27;20223;-82
2023/05/30 01:08:20;;;;;;;1.15;0.73;;;20.80;82.20;;;;;;5112521;27;20189;-82
2023/05/30 01:10:54;;;;;;;1.08;0.70;;;20.70;82.20;;;;;;5113055;27;20565;-82
2023/05/30 01:13:30;;;;;;;0.55;0.55;;;20.70;82.10;;;;;;5113916;27;20192;-81
2023/05/30 01:16:04;;;;;;;1.63;0.90;;;20.70;82.10;;;;;;5111973;27;20191;-82
2023/05/30 01:18:39;;;;;;;1.37;0.93;;;20.70;82.00;;;;;;5105190;27;20246;-81
2023/05/30 01:21:10;;;;;;;0.65;0.47;;;20.60;82.00;;;;;;5110921;28;20193;-82
2023/05/30 01:23:53;;;;;;;0.50;0.50;;;20.60;82.30;;;;;;5111803;27;20191;-82
2023/05/30 01:26:52;;;;;;;0.90;0.90;;;20.60;82.30;;;;;;5112586;27;20691;-81
2023/05/30 01:29:24;;;;;;;1.43;0.80;;;20.50;82.40;;;;;;5110055;28;20186;-82
2023/05/30 01:31:54;;;;;;;0.95;0.73;;;20.50;82.40;;;;;;5106723;27;20271;-81
2023/05/30 01:34:23;;;;;;;0.40;0.40;;;20.50;82.50;;;;;;5111146;27;20197;-82
2023/05/30 01:36:52;;;;;;;0.50;0.50;;;20.50;82.40;;;;;;5112542;28;20193;-82
2023/05/30 01:39:20;;;;;;;1.13;0.50;;;20.50;82.40;;;;;;5112130;28;20220;-81
2023/05/30 01:41:56;;;;;;;1.93;1.27;;;20.40;82.40;;;;;;5109891;27;20204;-82
2023/05/30 01:44:32;;;;;;;0.73;0.70;;;20.40;82.50;;;;;;5109841;27;20224;-83
2023/05/30 01:47:08;;;;;;;0.40;0.40;;;20.40;82.60;;;;;;5111704;27;20201;-82
2023/05/30 01:49:43;;;;;;;0.87;0.87;;;20.40;82.60;;;;;;5109304;28;20727;-82
2023/05/30 01:52:17;;;;;;;1.27;0.80;;;20.30;82.70;;;;;;5105488;27;20660;-83
2023/05/30 01:54:52;;;;;;;0.40;0.40;;;20.30;82.80;;;;;;5109396;28;20737;-83
2023/05/30 01:57:21;;;;;;;0.63;0.63;;;20.30;83.00;;;;;;5109500;28;20300;-82
2023/05/30 01:59:52;;;;;;;2.33;0.53;;;20.20;82.80;;;;;;5110885;27;20220;-82
2023/05/30 02:02:21;;;;;;;2.60;1.13;;;20.20;83.10;;;;;;5110458;28;20552;-81
2023/05/30 02:04:49;;;;;;;0.50;0.50;;;20.20;83.10;;;;;;5112954;28;20292;-82
2023/05/30 02:07:18;;;;;;;0.50;0.50;;;20.20;83.20;;;;;;5113530;27;20191;-81
2023/05/30 02:09:46;;;;;;;0.50;0.50;;;20.10;83.20;;;;;;5113854;27;20204;-82
2023/05/30 02:12:15;;;;;;;3.80;1.00;;;20.10;83.30;;;;;;5108851;27;20629;-82
2023/05/30 02:14:44;;;;;;;2.13;1.17;;;20.10;83.40;;;;;;5114793;27;20666;-82
2023/05/30 02:17:15;;;;;;;1.37;1.27;;;20.00;83.60;;;;;;5119638;27;20207;-83
2023/05/30 02:19:43;;;;;;;0.50;0.50;;;20.00;83.50;;;;;;5109410;27;20698;-82
2023/05/30 02:22:11;;;;;;;0.97;0.83;;;20.00;83.60;;;;;;5110439;28;20188;-83
2023/05/30 02:24:40;;;;;;;1.07;0.97;;;20.00;83.60;;;;;;5111957;28;20193;-82
2023/05/30 02:27:08;;;;;;;0.47;0.47;;;20.00;83.50;;;;;;5108116;28;20195;-82
2023/05/30 02:29:37;;;;;;;1.10;1.00;;;19.90;83.40;;;;;;5104862;28;20197;-82
2023/05/30 02:32:06;;;;;;;1.13;0.97;;;19.90;83.60;;;;;;5108999;27;20710;-82
2023/05/30 02:34:36;;;;;;;1.00;0.93;;;19.90;83.50;;;;;;5110597;28;20685;-82
2023/05/30 02:37:06;;;;;;;0.83;0.80;;;19.90;83.50;;;;;;5109644;28;20185;-83
2023/05/30 02:39:34;;;;;;;1.97;1.20;;;19.90;83.50;;;;;;5107936;28;20189;-83
2023/05/30 02:42:03;;;;;;;0.87;0.63;;;19.90;83.60;;;;;;5112058;27;20185;-83
2023/05/30 02:44:31;;;;;;;0.47;0.47;;;19.90;83.70;;;;;;5107189;28;20193;-82
2023/05/30 02:46:59;;;;;;;0.60;0.60;;;19.80;83.60;;;;;;5109302;28;20590;-83
2023/05/30 02:49:30;;;;;;;0.63;0.50;;;19.80;83.70;;;;;;5106930;27;20291;-83
2023/05/30 02:52:00;;;;;;;1.20;0.80;;;19.80;83.70;;;;;;5108032;28;20277;-83
2023/05/30 02:54:31;;;;;;;0.97;0.87;;;19.80;83.70;;;;;;5109250;28;20197;-82
2023/05/30 02:57:00;;;;;;;1.43;0.80;;;19.80;83.80;;;;;;5103112;27;20554;-82
2023/05/30 02:59:28;;;;;;;0.97;0.87;;;19.70;83.80;;;;;;5109730;27;20193;-83
2023/05/30 03:01:56;;;;;;;0.67;0.67;;;19.70;84.00;;;;;;5101869;27;20304;-83
2023/05/30 03:04:25;;;;;;;0.40;0.40;;;19.70;83.90;;;;;;5109492;28;20185;-83
2023/05/30 03:06:54;;;;;;;1.43;0.90;;;19.70;83.90;;;;;;5113018;28;20557;-81
2023/05/30 03:09:24;;;;;;;0.57;0.57;;;19.70;84.10;;;;;;5110336;27;20198;-82
2023/05/30 03:11:52;;;;;;;1.50;1.27;;;19.70;84.10;;;;;;5109752;28;20196;-82
2023/05/30 03:14:20;;;;;;;1.47;0.60;;;19.70;84.10;;;;;;5109456;28;20580;-83
2023/05/30 03:16:48;;;;;;;0.80;0.80;;;19.70;84.10;;;;;;5107367;28;20215;-82
2023/05/30 03:19:17;;;;;;;1.73;0.87;;;19.70;84.10;;;;;;5112795;27;20217;-82
2023/05/30 03:21:46;;;;;;;0.30;0.30;;;19.70;84.10;;;;;;5107584;28;20225;-82
2023/05/30 03:24:15;;;;;;;0.60;0.60;;;19.70;84.00;;;;;;5110978;27;20189;-81
2023/05/30 03:26:45;;;;;;;2.73;1.47;;;19.70;84.10;;;;;;5112327;28;20185;-82
2023/05/30 03:29:13;;;;;;;0.70;0.70;;;19.70;84.10;;;;;;5109755;28;20620;-81
2023/05/30 03:31:43;;;;;;;1.03;0.77;;;19.70;84.00;;;;;;5109254;27;20189;-82
2023/05/30 03:34:12;;;;;;;0.50;0.50;;;19.70;84.00;;;;;;5111732;28;20215;-82
2023/05/30 03:36:41;;;;;;;1.27;0.60;;;19.80;84.00;;;;;;5104488;28;20189;-82
2023/05/30 03:39:09;;;;;;;12.43;1.17;;;19.80;83.90;;;;;;5103753;28;20193;-84
2023/05/30 03:41:39;;;;;;;1.43;1.20;;;19.80;83.80;;;;;;5107058;28;20706;-82
2023/05/30 03:44:09;;;;;;;2.10;1.43;;;19.90;83.80;;;;;;5107256;28;20558;-82
2023/05/30 03:46:37;;;;;;;2.90;1.23;;;19.90;83.90;;;;;;5107726;28;20208;-83
2023/05/30 03:49:06;;;;;;;1.60;1.33;;;19.90;83.80;;;;;;5101438;28;20189;-82
2023/05/30 03:51:35;;;;;;;1.17;1.07;;;19.90;83.70;;;;;;5101323;28;20284;-81
2023/05/30 03:54:04;;;;;;;0.47;0.40;;;19.90;84.50;;;;;;5101826;28;20651;-82
2023/05/30 03:56:32;;;;;;;2.57;1.33;;;20.00;83.60;;;;;;5107595;28;20197;-82
2023/05/30 03:59:00;;;;;;;7.20;2.20;;;20.00;83.60;;;;;;5102417;28;20220;-82
2023/05/30 04:01:33;;;;;;;1.60;0.93;;;20.00;83.60;;;;;;5106762;28;20609;-82
2023/05/30 04:04:01;;;;;;;2.40;1.10;;;20.00;83.60;;;;;;5105901;28;20185;-81
2023/05/30 04:06:30;;;;;;;1.20;1.10;;;20.10;83.50;;;;;;5107705;28;20620;-83
2023/05/30 04:09:01;;;;;;;1.03;0.63;;;20.10;83.40;;;;;;5112819;28;20199;-82
2023/05/30 04:11:30;;;;;;;0.70;0.70;;;20.10;83.30;;;;;;5101831;28;20204;-82
2023/05/30 04:13:58;;;;;;;0.90;0.83;;;20.20;83.30;;;;;;5110728;28;20614;-82
2023/05/30 04:16:26;;;;;;;1.33;1.13;;;20.20;83.10;;;;;;5113520;28;20667;-82
2023/05/30 04:18:56;;;;;;;1.20;0.90;;;20.20;83.10;;;;;;5111128;28;20197;-82
2023/05/30 04:21:25;;;;;;;0.60;0.60;;;20.20;83.00;;;;;;5112847;28;20228;-81
2023/05/30 04:23:54;;;;;;;1.43;1.33;;;20.30;83.00;;;;;;5110351;27;20196;-82
2023/05/30 04:26:25;;;;;;;2.38;0.60;;;20.30;83.00;;;;;;5108786;28;20185;-82
2023/05/30 04:28:56;;;;;;;5.75;2.85;;;20.40;83.00;;;;;;5117748;28;20206;-82
2023/05/30 04:31:25;;;;;;;2.40;1.48;;;20.40;83.00;;;;;;5115015;28;20192;-81
2023/05/30 04:33:55;;;;;;;2.75;1.15;;;20.40;82.90;;;;;;5114192;27;20199;-82
2023/05/30 04:36:27;;;;;;;1.10;0.97;;;20.50;82.90;;;;;;5116294;27;20194;-85
2023/05/30 04:38:55;;;;;;;1.83;1.10;;;20.50;82.90;;;;;;5115327;28;20197;-83
2023/05/30 04:41:25;;;;;;;1.85;1.17;;;20.50;82.80;;;;;;5145386;27;20562;-81
2023/05/30 04:43:57;;;;;;;0.93;0.80;;;20.60;82.70;;;;;;5113422;27;20220;-81
2023/05/30 04:46:27;;;;;;;1.65;1.40;;;20.60;82.70;;;;;;5105055;27;20209;-82
2023/05/30 04:48:58;;;;;;;0.60;0.60;;;20.70;82.70;;;;;;5107544;28;20208;-82
2023/05/30 04:51:29;;;;;;;1.77;1.42;;;20.70;82.60;;;;;;5113189;27;20202;-80
2023/05/30 04:53:57;;;;;;;2.08;1.38;;;20.80;82.60;;;;;;5106998;28;20195;-82
2023/05/30 04:56:26;;;;;;;3.45;1.70;;;20.80;82.50;;;;;;5110448;27;20193;-87
2023/05/30 04:58:54;;;;;;;4.55;1.20;;;20.90;82.30;;;;;;5112706;28;20212;-83
2023/05/30 05:01:23;;;;;;;4.53;2.00;;;20.90;82.20;;;;;;5113355;27;20217;-83
2023/05/30 05:03:52;;;;;;;1.05;0.82;;;21.00;82.20;;;;;;5116456;27;20347;-82
2023/05/30 05:06:23;;;;;;;3.80;2.22;;;21.00;82.20;;;;;;5112979;28;20235;-84
2023/05/30 05:08:53;;;;;;;1.17;1.08;;;21.10;81.80;;;;;;5114039;28;20189;-83
2023/05/30 05:11:22;;;;;;;0.45;0.45;;;21.10;81.40;;;;;;5115058;28;20193;-83
2023/05/30 05:13:51;;;;;;;6.18;1.30;;;21.20;81.50;;;;;;5111012;28;20193;-83
2023/05/30 05:16:19;;;;;;;1.92;1.00;;;21.20;81.30;;;;;;5111303;28;20185;-85
2023/05/30 05:18:48;;;;;;;1.08;0.55;;;21.30;81.30;;;;;;5112285;28;20228;-83
2023/05/30 05:21:16;;;;;;;1.25;1.02;;;21.40;81.20;;;;;;5119434;27;20706;-83
2023/05/30 05:23:45;;;;;;;1.70;1.17;;;21.40;81.00;;;;;;5113419;27;20275;-84
2023/05/30 05:26:15;;;;;;;1.40;0.95;;;21.50;81.00;;;;;;5117189;27;20200;-84
2023/05/30 05:28:43;;;;;;;0.98;0.75;;;21.60;81.10;;;;;;5109673;28;20185;-83
2023/05/30 05:31:12;;;;;;;5.47;1.95;;;21.70;81.10;;;;;;5113966;28;20628;-83
2023/05/30 05:33:40;;;;;;;1.00;0.80;;;21.70;80.80;;;;;;5112981;28;20235;-84
2023/05/30 05:36:08;;;;;;;4.90;1.20;;;21.80;80.60;;;;;;5112348;27;20201;-83
2023/05/30 05:38:37;;;;;;;0.55;0.35;;;21.90;80.50;;;;;;5109367;28;20197;-83
2023/05/30 05:41:06;;;;;;;1.83;1.05;;;22.00;80.40;;;;;;5118781;27;20280;-83
2023/05/30 05:43:36;;;;;;;3.10;1.40;;;22.10;80.20;;;;;;5107800;27;20280;-83
2023/05/30 05:46:05;;;;;;;2.17;0.80;;;22.20;80.10;;;;;;5107599;27;20193;-84
2023/05/30 05:48:34;;;;;;;1.83;1.23;;;22.20;80.10;;;;;;5120940;27;20590;-83
2023/05/30 05:51:03;;;;;;;1.15;0.57;;;22.30;80.00;;;;;;5113235;28;20185;-82
2023/05/30 05:53:31;;;;;;;0.50;0.50;;;22.40;80.00;;;;;;5112978;27;20197;-84
2023/05/30 05:56:00;;;;;;;1.77;1.02;;;22.50;79.70;;;;;;5114692;27;20193;-83
2023/05/30 05:58:29;;;;;;;0.80;0.80;;;22.50;79.80;;;;;;5112054;28;20522;-82
2023/05/30 06:00:59;;;;;;;2.50;1.55;;;22.60;79.70;;;;;;5115669;28;20177;-84
2023/05/30 06:03:28;;;;;;;1.08;0.82;;;22.70;79.70;;;;;;5111823;27;21055;-83
2023/05/30 06:05:57;;;;;;;1.27;0.65;;;22.80;79.40;;;;;;5112615;27;20189;-83
2023/05/30 06:08:25;;;;;;;5.10;2.28;;;22.90;78.60;;;;;;5114335;27;20190;-85
2023/05/30 06:10:55;;;;;;;3.15;1.75;;;22.90;78.20;;;;;;5108951;28;20532;-85
2023/05/30 06:13:24;;;;;;;1.77;1.27;;;23.00;78.00;;;;;;5111881;27;20204;-84
2023/05/30 06:15:53;;;;;;;3.05;0.60;;;23.10;77.90;;;;;;5110453;27;20562;-84
2023/05/30 06:18:23;;;;;;;0.55;0.50;;;23.20;77.80;;;;;;5109509;27;20247;-85
2023/05/30 06:20:51;;;;;;;1.20;1.10;;;23.30;77.40;;;;;;5110133;28;20214;-85
2023/05/30 06:23:21;;;;;;;1.85;1.17;;;23.30;77.30;;;;;;5104064;28;20228;-85
2023/05/30 06:25:49;;;;;;;1.75;1.10;;;23.40;77.40;;;;;;5117567;27;20201;-84
2023/05/30 06:28:18;;;;;;;0.57;0.57;;;23.50;76.70;;;;;;5114202;28;20189;-85
2023/05/30 06:30:46;;;;;;;0.82;0.73;;;23.60;76.40;;;;;;5118852;27;20291;-84
2023/05/30 06:33:15;;;;;;;0.60;0.60;;;23.60;76.20;;;;;;5108446;28;20730;-84
2023/05/30 06:35:45;;;;;;;2.35;1.33;;;23.70;76.20;;;;;;5112474;28;20189;-85
2023/05/30 06:38:15;;;;;;;1.95;1.17;;;23.80;75.90;;;;;;5109718;28;20216;-84
2023/05/30 06:40:43;;;;;;;1.20;1.02;;;23.90;76.10;;;;;;5113341;28;20197;-86
2023/05/30 06:43:12;;;;;;;0.65;0.50;;;24.00;75.60;;;;;;5107414;27;20212;-85
2023/05/30 06:45:40;;;;;;;1.73;1.35;;;24.00;74.90;;;;;;5117463;27;20193;-84
2023/05/30 06:48:09;;;;;;;1.80;0.75;;;24.10;74.30;;;;;;5120135;27;20189;-85
2023/05/30 06:50:38;;;;;;;2.00;1.48;;;24.20;74.10;;;;;;5109782;27;20208;-85
2023/05/30 06:53:10;;;;;;;0.45;0.45;;;24.30;73.50;;;;;;5106475;27;20196;-85
2023/05/30 06:55:39;;;;;;;1.60;0.88;;;24.40;73.40;;;;;;5109408;28;20549;-84
2023/05/30 06:58:08;;;;;;;6.65;1.38;;;24.50;72.50;;;;;;5112784;28;20204;-84
2023/05/30 07:00:38;;;;;;;0.68;0.68;;;24.50;71.30;;;;;;5107835;27;20197;-84
2023/05/30 07:03:06;;;;;;;1.08;0.98;;;24.60;70.70;;;;;;5121605;27;20212;-84
2023/05/30 07:05:35;;;;;;;0.75;0.75;;;24.60;70.20;;;;;;5111636;28;20717;-84
2023/05/30 07:08:04;;;;;;;5.05;1.27;;;24.70;70.20;;;;;;5113985;28;20189;-84
2023/05/30 07:10:35;;;;;;;2.25;1.30;;;24.80;71.40;;;;;;5106490;28;20228;-85
2023/05/30 07:13:04;;;;;;;2.30;0.98;;;24.90;69.40;;;;;;5102571;28;20192;-84
2023/05/30 07:15:32;;;;;;;0.75;0.47;;;25.00;68.80;;;;;;5114980;27;20192;-85
2023/05/30 07:18:01;;;;;;;0.60;0.40;;;25.00;67.60;;;;;;5119408;27;20197;-85
2023/05/30 07:20:30;;;;;;;1.75;0.77;;;25.10;64.90;;;;;;5114282;28;20197;-83
2023/05/30 07:22:58;;;;;;;0.90;0.90;;;25.20;64.70;;;;;;5114744;28;20224;-85
2023/05/30 07:25:28;;;;;;;0.50;0.50;;;25.20;65.20;;;;;;5100762;28;20189;-83
2023/05/30 07:27:58;;;;;;;0.50;0.50;;;25.20;64.20;;;;;;5108169;28;20195;-84
2023/05/30 07:30:27;;;;;;;1.00;0.60;;;25.30;63.90;;;;;;5109739;28;20612;-84
2023/05/30 07:32:56;;;;;;;2.35;0.80;;;25.30;63.60;;;;;;5109701;28;20222;-84
2023/05/30 07:35:25;;;;;;;7.82;0.60;;;25.40;62.90;;;;;;5118441;27;20220;-84
2023/05/30 07:37:54;;;;;;;0.47;0.47;;;25.40;63.50;;;;;;5112909;28;20189;-85
2023/05/30 07:40:24;;;;;;;1.55;1.00;;;25.50;63.90;;;;;;5103503;28;20193;-86
2023/05/30 07:42:52;;;;;;;1.10;0.63;;;25.50;63.10;;;;;;5112395;28;20221;-84
2023/05/30 07:45:22;;;;;;;1.17;0.75;;;25.60;63.60;;;;;;5110179;28;20200;-84
2023/05/30 07:47:51;;;;;;;1.30;0.60;;;25.60;62.80;;;;;;5112766;28;20569;-84
2023/05/30 07:50:23;;;;;;;0.60;0.60;;;25.60;62.30;;;;;;5114520;27;20630;-83
2023/05/30 07:52:51;;;;;;;0.57;0.57;;;25.60;61.10;;;;;;5118807;27;20196;-82
2023/05/30 07:55:19;;;;;;;1.30;0.60;;;25.60;61.40;;;;;;5123080;27;20226;-82
2023/05/30 07:57:48;;;;;;;0.70;0.52;;;25.70;60.90;;;;;;5113919;27;20182;-80
2023/05/30 08:00:17;;;;;;;0.88;0.70;;;25.70;61.00;;;;;;5118665;27;20195;-85
2023/05/30 08:02:47;;;;;;;0.40;0.40;;;25.80;61.30;;;;;;5113484;27;20224;-85
2023/05/30 08:05:16;;;;;;;0.63;0.55;;;25.90;61.70;;;;;;5112454;27;20199;-83
2023/05/30 08:07:44;;;;;;;6.18;0.98;;;25.90;62.90;;;;;;5115467;27;20283;-84
2023/05/30 08:10:12;;;;;;;0.40;0.40;;;26.00;61.20;;;;;;5111567;28;20193;-84
2023/05/30 08:12:41;;;;;;;0.73;0.50;;;26.00;60.60;;;;;;5124952;27;20188;-85
2023/05/30 08:15:10;;;;;;;0.88;0.77;;;26.00;60.60;;;;;;5115185;27;20193;-86
2023/05/30 08:17:41;;;;;;;1.55;0.82;;;26.10;60.60;;;;;;5117067;27;20203;-84
2023/05/30 08:20:12;;;;;;;1.17;1.08;;;26.20;60.80;;;;;;5121963;27;20566;-85
2023/05/30 08:22:41;;;;;;;2.03;0.80;;;26.30;60.90;;;;;;5125775;27;20192;-84
2023/05/30 08:25:10;;;;;;;2.38;1.20;;;26.30;60.00;;;;;;5122155;27;20211;-85
2023/05/30 08:27:39;;;;;;;1.45;0.82;;;26.30;59.90;;;;;;5111306;27;20193;-83
2023/05/30 08:30:10;;;;;;;0.68;0.68;;;26.30;59.70;;;;;;5115521;27;20208;-84
2023/05/30 08:32:40;;;;;;;0.40;0.30;;;26.40;60.00;;;;;;5117166;28;20225;-85
2023/05/30 08:35:10;;;;;;;1.60;0.88;;;26.50;59.90;;;;;;5115767;28;20185;-85
2023/05/30 08:37:38;;;;;;;0.65;0.65;;;26.50;60.00;;;;;;5114982;27;20277;-85
2023/05/30 08:40:12;;;;;;;0.65;0.60;;;26.50;60.10;;;;;;5112946;27;20653;-85
2023/05/30 08:42:41;;;;;;;5.32;1.05;;;26.50;59.20;;;;;;5114749;27;20189;-84
2023/05/30 08:45:11;;;;;;;0.70;0.70;;;26.50;58.50;;;;;;5118483;27;20205;-86
2023/05/30 08:47:40;;;;;;;0.55;0.50;;;26.50;58.30;;;;;;5143247;27;20217;-84
2023/05/30 08:50:12;;;;;;;2.40;1.80;;;26.50;58.10;;;;;;5117662;28;20652;-84
2023/05/30 08:52:44;;;;;;;2.85;0.85;;;26.50;58.10;;;;;;5115382;28;20189;-84
2023/05/30 08:55:14;;;;;;;1.10;0.60;;;26.60;58.30;;;;;;5104972;28;20577;-83
2023/05/30 08:57:50;;;;;;;0.98;0.65;;;26.60;57.90;;;;;;5120304;27;20189;-82
2023/05/30 09:00:21;;;;;;;0.75;0.70;;;26.70;57.60;;;;;;5112336;27;20192;-85
2023/05/30 09:02:55;;;;;;;0.47;0.47;;;26.80;58.00;;;;;;5117818;27;20185;-84
2023/05/30 09:05:26;;;;;;;0.65;0.60;;;26.90;58.40;;;;;;5110577;27;20185;-83
2023/05/30 09:07:56;;;;;;;0.30;0.30;;;27.00;58.70;;;;;;5109718;27;20682;-84
2023/05/30 09:10:26;;;;;;;1.17;0.95;;;27.00;58.40;;;;;;5112633;27;20276;-82
2023/05/30 09:12:59;;;;;;;0.30;0.30;;;27.10;58.20;;;;;;5120368;27;20611;-84
2023/05/30 09:15:28;;;;;;;0.93;0.82;;;27.10;57.60;;;;;;5123738;27;20220;-84
2023/05/30 09:17:57;;;;;;;0.73;0.73;;;27.20;56.90;;;;;;5113127;27;20220;-85
2023/05/30 09:20:31;;;;;;;2.80;0.93;;;27.20;57.30;;;;;;5114934;28;20232;-85
2023/05/30 09:23:00;;;;;;;0.88;0.77;;;27.30;57.10;;;;;;5118093;28;20281;-83
2023/05/30 09:25:41;;;;;;;1.45;0.90;;;27.40;57.30;;;;;;5115946;27;20217;-82
2023/05/30 09:28:10;;;;;;;1.13;0.65;;;27.40;57.30;;;;;;5114430;27;20196;-83
2023/05/30 09:30:54;;;;;;;1.20;0.60;;;27.40;55.30;;;;;;5114272;28;20201;-86
2023/05/30 09:33:42;;;;;;;1.40;0.95;;;27.30;54.90;;;;;;5115667;28;20259;-82
2023/05/30 09:36:15;;;;;;;1.40;1.00;;;27.40;55.50;;;;;;5109782;28;20193;-84
2023/05/30 09:38:54;;;;;;;1.88;0.68;;;27.40;55.70;;;;;;5120009;27;20197;-83
2023/05/30 09:41:23;;;;;;;1.08;0.65;;;27.50;56.20;;;;;;5113368;28;20230;-83
2023/05/30 09:43:53;;;;;;;0.75;0.75;;;27.50;55.30;;;;;;5117484;27;20282;-83
2023/05/30 09:46:23;;;;;;;4.10;1.52;;;27.60;55.30;;;;;;5112878;28;20632;-82
2023/05/30 09:48:52;;;;;;;0.50;0.50;;;27.70;54.90;;;;;;5113810;28;20197;-83
2023/05/30 09:51:25;;;;;;;0.50;0.50;;;27.70;53.00;;;;;;5112483;27;20195;-83
2023/05/30 09:54:00;;;;;;;0.30;0.30;;;27.80;52.80;;;;;;5112341;27;20199;-82
2023/05/30 09:56:36;;;;;;;1.35;0.90;;;27.90;52.50;;;;;;5101044;28;20197;-83
2023/05/30 09:59:07;;;;;;;0.85;0.60;;;28.00;52.70;;;;;;5107968;27;20250;-81
2023/05/30 10:01:38;;;;;;;0.30;0.30;;;28.10;53.30;;;;;;5110192;27;20188;-84
2023/05/30 10:04:14;;;;;;;1.17;1.00;;;28.20;53.50;;;;;;5108866;28;20243;-82
2023/05/30 10:06:46;;;;;;;1.13;0.65;;;28.20;52.40;;;;;;5114144;27;20185;-85
2023/05/30 10:09:15;;;;;;;0.40;0.38;;;28.30;52.60;;;;;;5114294;27;20245;-81
2023/05/30 10:11:45;;;;;;;1.05;0.65;;;28.40;51.30;;;;;;5112586;28;20189;-82
2023/05/30 10:14:13;;;;;;;0.55;0.52;;;28.50;52.30;;;;;;5112921;28;20185;-81
2023/05/30 10:16:47;;;;;;;1.20;1.00;;;28.50;50.30;;;;;;5105921;28;20597;-80
2023/05/30 10:19:18;;;;;;;0.32;0.32;;;28.60;50.50;;;;;;5112901;28;20234;-80
2023/05/30 10:21:49;;;;;;;0.93;0.70;;;28.70;51.20;;;;;;5112606;28;20610;-80
2023/05/30 10:24:22;;;;;;;2.08;1.17;;;28.70;50.80;;;;;;5111316;28;20213;-82
2023/05/30 10:26:55;;;;;;;1.17;0.63;;;28.80;50.70;;;;;;5113315;28;20651;-82
2023/05/30 10:29:28;;;;;;;1.75;0.40;;;28.80;50.60;;;;;;5113210;28;20189;-81
2023/05/30 10:32:00;;;;;;;0.55;0.55;;;28.90;50.20;;;;;;5106793;28;20221;-81
2023/05/30 10:34:36;;;;;;;1.52;0.73;;;28.90;50.70;;;;;;5113204;27;20674;-81
2023/05/30 10:37:07;;;;;;;2.35;0.90;;;28.80;50.30;;;;;;5107342;28;20177;-81
2023/05/30 10:39:46;;;;;;;0.60;0.60;;;28.80;50.20;;;;;;5114241;28;20269;-82
2023/05/30 10:42:26;;;;;;;0.60;0.45;;;28.90;50.00;;;;;;5108666;28;20193;-81
2023/05/30 10:45:05;;;;;;;0.82;0.75;;;28.90;50.60;;;;;;5114542;28;20208;-81
2023/05/30 10:47:41;;;;;;;3.38;1.02;;;29.00;50.60;;;;;;5113282;28;20193;-81
2023/05/30 10:50:15;;;;;;;0.45;0.43;;;29.10;50.20;;;;;;5113457;28;20241;-81
2023/05/30 10:52:47;;;;;;;1.15;1.05;;;29.00;48.80;;;;;;5114926;28;20200;-81
2023/05/30 10:55:16;;;;;;;1.55;1.00;;;29.10;49.80;;;;;;5114157;28;20288;-81
2023/05/30 10:57:44;;;;;;;1.25;0.52;;;29.20;49.80;;;;;;5112045;28;20224;-84
2023/05/30 11:00:23;;;;;;;0.88;0.73;;;29.30;49.60;;;;;;5106878;28;20198;-83
2023/05/30 11:02:53;;;;;;;0.43;0.30;;;29.30;49.20;;;;;;5109527;27;20598;-83
2023/05/30 11:05:30;;;;;;;0.80;0.80;;;29.30;48.40;;;;;;5111845;27;20201;-81
2023/05/30 11:08:03;;;;;;;1.67;0.70;;;29.40;49.30;;;;;;5112214;27;20202;-82
2023/05/30 11:10:33;;;;;;;0.98;0.52;;;29.50;49.30;;;;;;5113311;27;20207;-82
2023/05/30 11:13:09;;;;;;;0.55;0.50;;;29.60;49.50;;;;;;5110955;27;20678;-82
2023/05/30 11:15:43;;;;;;;1.70;0.55;;;29.60;49.40;;;;;;5116972;27;20193;-82
2023/05/30 11:18:21;;;;;;;0.40;0.40;;;29.70;48.90;;;;;;5112989;28;20209;-83
2023/05/30 11:20:51;;;;;;;0.55;0.55;;;29.70;48.70;;;;;;5100803;28;20194;-81
2023/05/30 11:23:23;;;;;;;1.40;1.00;;;29.80;48.60;;;;;;5115545;27;20181;-84
2023/05/30 11:25:58;;;;;;;1.08;0.60;;;29.80;48.50;;;;;;5118844;27;20688;-84
2023/05/30 11:28:37;;;;;;;1.00;0.73;;;29.80;48.50;;;;;;5104619;28;20203;-83
2023/05/30 11:31:19;;;;;;;0.60;0.60;;;29.90;48.60;;;;;;5095681;28;20548;-82
2023/05/30 11:33:51;;;;;;;0.38;0.38;;;29.80;47.30;;;;;;5107339;28;20224;-82
2023/05/30 11:36:22;;;;;;;0.30;0.30;;;29.80;47.00;;;;;;5110309;27;20192;-83
2023/05/30 11:38:53;;;;;;;0.30;0.30;;;29.70;46.60;;;;;;5108840;28;20200;-81
2023/05/30 11:41:24;;;;;;;1.65;0.75;;;29.70;46.70;;;;;;5101372;28;20221;-82
2023/05/30 11:43:53;;;;;;;2.10;0.82;;;29.70;46.80;;;;;;5108570;28;20664;-82
2023/05/30 11:46:21;;;;;;;0.63;0.63;;;29.60;46.80;;;;;;5117239;28;20221;-82
2023/05/30 11:48:50;;;;;;;0.38;0.38;;;29.60;47.00;;;;;;5120341;28;20187;-82
2023/05/30 11:51:18;;;;;;;0.52;0.45;;;29.60;47.30;;;;;;5110881;28;20190;-82
2023/05/30 11:53:46;;;;;;;3.92;0.52;;;29.60;47.30;;;;;;5113330;28;20200;-85
2023/05/30 11:56:17;;;;;;;1.98;0.50;;;29.60;47.60;;;;;;5100807;28;20216;-82
2023/05/30 11:58:45;;;;;;;0.30;0.30;;;29.70;48.00;;;;;;5111913;28;20189;-82
2023/05/30 12:01:14;;;;;;;0.55;0.52;;;29.70;47.80;;;;;;5104920;28;20201;-81
2023/05/30 12:03:44;;;;;;;1.08;0.63;;;29.80;47.60;;;;;;5109377;28;20549;-80
2023/05/30 12:06:13;;;;;;;0.45;0.40;;;29.80;47.60;;;;;;5107920;28;20217;-80
2023/05/30 12:08:43;;;;;;;1.80;0.50;;;29.90;46.80;;;;;;5105155;28;20201;-82
2023/05/30 12:11:11;;;;;;;0.50;0.50;;;29.90;46.20;;;;;;5111928;28;20191;-83
2023/05/30 12:13:41;;;;;;;0.40;0.40;;;30.00;47.20;;;;;;5112200;28;20640;-82
2023/05/30 12:16:11;;;;;;;2.80;1.00;;;30.10;47.00;;;;;;5113579;28;20200;-82
2023/05/30 12:18:40;;;;;;;1.80;1.23;;;30.10;47.00;;;;;;5110364;27;20228;-81
2023/05/30 12:21:12;;;;;;;3.58;1.45;;;30.10;46.90;;;;;;5111998;28;20197;-82
2023/05/30 12:23:42;;;;;;;0.30;0.20;;;30.00;46.30;;;;;;5108095;28;20282;-81
2023/05/30 12:26:17;;;;;;;0.65;0.47;;;30.00;46.60;;;;;;5110159;28;20304;-81
2023/05/30 12:28:49;;;;;;;0.60;0.55;;;30.00;45.70;;;;;;5113293;28;20223;-81
2023/05/30 12:31:24;;;;;;;0.50;0.50;;;30.10;46.00;;;;;;5106902;28;20648;-82
2023/05/30 12:33:53;;;;;;;0.30;0.30;;;30.10;46.00;;;;;;5107534;28;20255;-81
2023/05/30 12:36:21;;;;;;;1.02;0.47;;;30.10;46.30;;;;;;5113097;27;20201;-81
2023/05/30 12:38:58;;;;;;;0.55;0.40;;;30.20;46.70;;;;;;5111268;27;20738;-81
2023/05/30 12:41:30;;;;;;;0.65;0.50;;;30.20;47.20;;;;;;5113757;27;20194;-82
2023/05/30 12:44:00;;;;;;;1.45;0.93;;;30.20;46.10;;;;;;5115312;27;20269;-82
2023/05/30 12:46:31;;;;;;;0.40;0.40;;;30.30;45.20;;;;;;5111469;27;20690;-82
2023/05/30 12:48:59;;;;;;;0.70;0.70;;;30.40;45.50;;;;;;5112996;27;20207;-81
2023/05/30 12:51:28;;;;;;;0.75;0.70;;;30.40;45.60;;;;;;5114452;27;20466;-81
2023/05/30 12:53:56;;;;;;;1.17;0.75;;;30.50;45.30;;;;;;5118173;27;20193;-81
2023/05/30 12:56:24;;;;;;;0.30;0.30;;;30.50;45.30;;;;;;5112535;27;20189;-81
2023/05/30 12:58:53;;;;;;;5.28;0.50;;;30.50;45.40;;;;;;5107386;28;20193;-81
2023/05/30 13:01:22;;;;;;;0.73;0.50;;;30.50;44.60;;;;;;5115475;27;20185;-82
2023/05/30 13:03:51;;;;;;;0.52;0.52;;;30.50;44.50;;;;;;5114945;27;20292;-82